createdAt,value
2023-04-12T00:01:30.186Z,0.57
2023-04-12T00:03:57.996Z,0.70
2023-04-12T00:06:32.112Z,0.70
2023-04-12T00:09:00.079Z,0.80
2023-04-12T00:11:28.412Z,0.67
2023-04-12T00:13:56.505Z,0.90
2023-04-12T00:16:23.650Z,0.60
2023-04-12T00:18:51.480Z,0.80
2023-04-12T00:21:19.573Z,0.80
2023-04-12T00:23:49.444Z,0.70
2023-04-12T00:26:17.138Z,0.63
2023-04-12T00:28:45.990Z,0.80
2023-04-12T00:31:13.840Z,0.70
2023-04-12T00:33:41.638Z,0.70
2023-04-12T00:36:10.102Z,0.70
2023-04-12T00:38:37.742Z,0.70
2023-04-12T00:41:07.411Z,0.50
2023-04-12T00:43:35.026Z,0.60
2023-04-12T00:46:03.018Z,0.70
2023-04-12T00:48:32.077Z,0.70
2023-04-12T00:51:01.060Z,0.63
2023-04-12T00:53:29.638Z,0.57
2023-04-12T00:55:57.853Z,0.60
2023-04-12T00:58:26.824Z,0.67
2023-04-12T01:00:54.756Z,0.70
2023-04-12T01:03:24.146Z,0.63
2023-04-12T01:06:05.549Z,0.70
2023-04-12T01:08:44.007Z,0.80
2023-04-12T01:11:19.453Z,0.80
2023-04-12T01:13:56.898Z,0.60
2023-04-12T01:16:31.983Z,0.90
2023-04-12T01:19:05.116Z,0.60
2023-04-12T01:21:46.085Z,0.80
2023-04-12T01:24:24.662Z,0.63
2023-04-12T01:26:52.888Z,0.40
2023-04-12T01:29:23.353Z,0.60
2023-04-12T01:31:54.292Z,0.60
2023-04-12T01:34:24.120Z,0.60
2023-04-12T01:36:52.999Z,0.57
2023-04-12T01:39:21.434Z,0.70
2023-04-12T01:41:49.210Z,0.80
2023-04-12T01:44:17.976Z,0.50
2023-04-12T01:46:48.118Z,0.50
2023-04-12T01:49:16.960Z,0.77
2023-04-12T01:51:52.205Z,0.70
2023-04-12T01:54:23.830Z,0.70
2023-04-12T01:56:57.850Z,0.77
2023-04-12T01:59:29.385Z,0.70
2023-04-12T02:01:59.192Z,0.70
2023-04-12T02:04:28.488Z,0.73
2023-04-12T02:06:56.597Z,0.63
2023-04-12T02:09:24.486Z,0.50
2023-04-12T02:11:52.138Z,0.70
2023-04-12T02:14:20.086Z,0.60
2023-04-12T02:16:48.148Z,0.70
2023-04-12T02:19:17.643Z,0.70
2023-04-12T02:21:46.719Z,0.50
2023-04-12T02:24:14.390Z,0.63
2023-04-12T02:26:42.035Z,0.80
2023-04-12T02:29:10.510Z,0.70
2023-04-12T02:31:39.380Z,0.60
2023-04-12T02:34:07.066Z,0.73
2023-04-12T02:36:37.959Z,0.63
2023-04-12T02:39:05.976Z,0.70
2023-04-12T02:41:34.465Z,0.73
2023-04-12T02:44:02.123Z,0.60
2023-04-12T02:46:29.977Z,0.70
2023-04-12T02:48:57.897Z,0.70
2023-04-12T02:51:26.117Z,0.60
2023-04-12T02:53:55.345Z,0.70
2023-04-12T02:56:24.721Z,0.50
2023-04-12T02:58:52.499Z,0.60
2023-04-12T03:01:20.150Z,0.60
2023-04-12T03:03:47.818Z,0.60
2023-04-12T03:06:15.474Z,0.60
2023-04-12T03:08:43.060Z,0.50
2023-04-12T03:11:11.986Z,0.60
2023-04-12T03:13:39.621Z,0.73
2023-04-12T03:16:23.351Z,0.67
2023-04-12T03:18:51.717Z,0.73
2023-04-12T03:21:19.555Z,0.57
2023-04-12T03:23:47.186Z,0.67
2023-04-12T03:26:16.183Z,0.70
2023-04-12T03:28:45.801Z,0.60
2023-04-12T03:31:13.589Z,0.60
2023-04-12T03:33:41.600Z,0.70
2023-04-12T03:36:10.645Z,0.70
2023-04-12T03:38:38.273Z,0.60
2023-04-12T03:41:06.531Z,0.70
2023-04-12T03:43:37.452Z,0.80
2023-04-12T03:46:05.703Z,0.57
2023-04-12T03:48:33.569Z,0.50
2023-04-12T03:51:08.580Z,0.80
2023-04-12T03:53:36.914Z,0.53
2023-04-12T03:56:04.646Z,0.60
2023-04-12T03:58:33.876Z,0.60
2023-04-12T04:01:06.127Z,0.70
2023-04-12T04:03:35.044Z,0.70
2023-04-12T04:06:03.442Z,0.90
2023-04-12T04:08:32.550Z,0.70
2023-04-12T04:11:00.533Z,0.60
2023-04-12T04:13:28.160Z,0.80
2023-04-12T04:16:01.301Z,0.40
2023-04-12T04:18:30.298Z,0.60
2023-04-12T04:20:58.520Z,0.77
2023-04-12T04:23:27.757Z,0.70
2023-04-12T04:25:55.413Z,0.63
2023-04-12T04:28:23.065Z,0.60
2023-04-12T04:30:51.609Z,0.67
2023-04-12T04:33:19.957Z,0.63
2023-04-12T04:35:49.113Z,0.70
2023-04-12T04:38:16.817Z,0.70
2023-04-12T04:40:44.435Z,0.60
2023-04-12T04:43:13.925Z,0.77
2023-04-12T04:45:42.925Z,0.80
2023-04-12T04:48:10.583Z,0.70
2023-04-12T04:50:38.172Z,0.70
2023-04-12T04:53:07.108Z,0.67
2023-04-12T04:55:34.733Z,0.63
2023-04-12T04:58:02.351Z,0.60
2023-04-12T05:00:30.369Z,0.80
2023-04-12T05:02:58.231Z,0.60
2023-04-12T05:05:26.038Z,0.60
2023-04-12T05:07:53.717Z,0.57
2023-04-12T05:10:23.272Z,0.80
2023-04-12T05:12:50.909Z,0.50
2023-04-12T05:15:20.042Z,0.60
2023-04-12T05:17:47.730Z,0.70
2023-04-12T05:20:15.364Z,0.60
2023-04-12T05:22:43.000Z,0.60
2023-04-12T05:25:11.291Z,0.60
2023-04-12T05:27:40.295Z,0.50
2023-04-12T05:30:09.369Z,0.60
2023-04-12T05:32:36.977Z,0.70
2023-04-12T05:35:04.805Z,0.70
2023-04-12T05:37:32.476Z,0.60
2023-04-12T05:40:00.064Z,0.60
2023-04-12T05:42:28.414Z,0.60
2023-04-12T05:44:57.413Z,0.60
2023-04-12T05:47:25.046Z,0.73
2023-04-12T05:49:52.693Z,0.53
2023-04-12T05:52:20.573Z,0.60
2023-04-12T05:54:48.852Z,0.60
2023-04-12T05:57:17.645Z,0.70
2023-04-12T05:59:45.453Z,0.60
2023-04-12T06:02:14.605Z,0.70
2023-04-12T06:04:49.304Z,0.70
2023-04-12T06:07:19.270Z,0.60
2023-04-12T06:09:47.339Z,0.60
2023-04-12T06:12:14.966Z,0.60
2023-04-12T06:14:42.705Z,0.73
2023-04-12T06:17:10.371Z,0.83
2023-04-12T06:19:39.337Z,0.60
2023-04-12T06:22:06.999Z,0.60
2023-04-12T06:24:34.704Z,0.50
2023-04-12T06:27:02.319Z,0.60
2023-04-12T06:29:29.910Z,0.60
2023-04-12T06:31:57.584Z,0.63
2023-04-12T06:34:25.259Z,0.70
2023-04-12T06:36:54.224Z,0.60
2023-04-12T06:39:22.042Z,0.77
2023-04-12T06:41:50.495Z,0.70
2023-04-12T06:44:18.458Z,0.53
2023-04-12T06:46:46.533Z,0.70
2023-04-12T06:49:14.176Z,0.70
2023-04-12T06:51:41.742Z,0.70
2023-04-12T06:54:10.787Z,0.90
2023-04-12T06:56:39.456Z,0.77
2023-04-12T06:59:07.100Z,0.80
2023-04-12T07:01:34.711Z,0.60
2023-04-12T07:04:02.541Z,0.70
2023-04-12T07:06:30.235Z,0.80
2023-04-12T07:08:58.202Z,0.70
2023-04-12T07:11:28.198Z,0.70
2023-04-12T07:13:56.213Z,0.70
2023-04-12T07:16:23.882Z,0.60
2023-04-12T07:18:51.464Z,0.60
2023-04-12T07:21:19.074Z,0.83
2023-04-12T07:23:51.036Z,1.07
2023-04-12T07:26:19.046Z,0.90
2023-04-12T07:28:48.003Z,0.83
2023-04-12T07:31:15.594Z,0.90
2023-04-12T07:33:43.648Z,1.23
2023-04-12T07:36:12.497Z,1.20
2023-04-12T07:38:40.130Z,1.07
2023-04-12T07:41:07.826Z,1.00
2023-04-12T07:43:35.429Z,1.20
2023-04-12T07:46:08.369Z,1.00
2023-04-12T07:48:36.200Z,1.10
2023-04-12T07:51:03.879Z,1.13
2023-04-12T07:53:31.535Z,0.90
2023-04-12T07:55:59.150Z,1.00
2023-04-12T07:58:26.794Z,1.00
2023-04-12T08:00:54.735Z,0.73
2023-04-12T08:03:24.351Z,0.80
2023-04-12T08:05:54.186Z,1.00
2023-04-12T08:08:22.654Z,1.00
2023-04-12T08:10:50.574Z,0.80
2023-04-12T08:13:18.473Z,1.00
2023-04-12T08:15:47.264Z,0.90
2023-04-12T08:18:15.314Z,1.20
2023-04-12T08:20:45.006Z,0.93
2023-04-12T08:23:12.697Z,1.30
2023-04-12T08:25:40.608Z,1.00
2023-04-12T08:28:08.856Z,1.20
2023-04-12T08:30:36.737Z,1.10
2023-04-12T08:33:04.670Z,1.10
2023-04-12T08:35:32.765Z,1.23
2023-04-12T08:38:07.288Z,1.03
2023-04-12T08:40:34.969Z,1.13
2023-04-12T08:43:03.911Z,1.40
2023-04-12T08:45:35.398Z,1.10
2023-04-12T08:48:04.316Z,1.10
2023-04-12T08:50:32.827Z,0.90
2023-04-12T08:53:01.809Z,1.10
2023-04-12T08:55:29.628Z,1.00
2023-04-12T08:57:58.559Z,1.03
2023-04-12T09:00:27.305Z,1.03
2023-04-12T09:02:55.088Z,1.10
2023-04-12T09:05:29.610Z,1.33
2023-04-12T09:07:57.738Z,1.03
2023-04-12T09:10:34.234Z,1.47
2023-04-12T09:13:02.128Z,1.30
2023-04-12T09:15:30.293Z,1.13
2023-04-12T09:18:09.262Z,1.23
2023-04-12T09:20:37.357Z,1.10
2023-04-12T09:23:18.754Z,1.47
2023-04-12T09:25:51.715Z,1.27
2023-04-12T09:28:24.552Z,1.10
2023-04-12T09:30:53.518Z,1.33
2023-04-12T09:33:23.235Z,1.47
2023-04-12T09:35:51.141Z,1.50
2023-04-12T09:38:18.993Z,1.40
2023-04-12T09:40:48.586Z,1.30
2023-04-12T09:43:16.618Z,1.30
2023-04-12T09:45:44.216Z,1.10
2023-04-12T09:48:20.925Z,1.20
2023-04-12T09:50:48.948Z,1.20
2023-04-12T09:53:18.217Z,1.40
2023-04-12T09:55:50.144Z,1.80
2023-04-12T09:58:21.286Z,1.13
2023-04-12T10:00:49.544Z,1.40
2023-04-12T10:03:17.336Z,1.27
2023-04-12T10:05:45.115Z,1.20
2023-04-12T10:08:12.848Z,1.40
2023-04-12T10:10:40.845Z,1.60
2023-04-12T10:13:11.366Z,1.87
2023-04-12T10:15:40.412Z,1.27
2023-04-12T10:18:08.514Z,1.40
2023-04-12T10:20:37.096Z,1.47
2023-04-12T10:23:07.773Z,1.43
2023-04-12T10:25:36.040Z,1.60
2023-04-12T10:28:17.270Z,1.50
2023-04-12T10:30:45.219Z,1.30
2023-04-12T10:33:14.642Z,1.50
2023-04-12T10:35:54.380Z,1.47
2023-04-12T10:38:24.956Z,1.30
2023-04-12T10:41:08.540Z,1.30
2023-04-12T10:43:37.783Z,1.23
2023-04-12T10:46:06.824Z,1.40
2023-04-12T10:48:36.149Z,1.40
2023-04-12T10:51:15.150Z,1.60
2023-04-12T10:53:42.823Z,1.50
2023-04-12T10:56:39.326Z,1.37
2023-04-12T10:59:08.670Z,1.50
2023-04-12T11:01:38.807Z,1.60
2023-04-12T11:04:18.145Z,1.50
2023-04-12T11:06:58.522Z,1.50
2023-04-12T11:09:28.529Z,1.93
2023-04-12T11:11:59.194Z,1.63
2023-04-12T11:14:31.194Z,1.63
2023-04-12T11:17:21.948Z,1.80
2023-04-12T11:19:53.229Z,1.57
2023-04-12T11:22:23.030Z,1.73
2023-04-12T11:24:52.500Z,1.70
2023-04-12T11:27:21.515Z,2.07
2023-04-12T11:29:52.440Z,1.50
2023-04-12T11:32:20.221Z,1.77
2023-04-12T11:34:48.341Z,1.63
2023-04-12T11:37:16.455Z,1.90
2023-04-12T11:39:45.416Z,1.80
2023-04-12T11:42:17.945Z,1.83
2023-04-12T11:47:20.177Z,1.70
2023-04-12T11:49:49.213Z,1.80
2023-04-12T11:52:17.875Z,2.10
2023-04-12T11:54:46.995Z,1.93
2023-04-12T11:57:16.849Z,2.03
2023-04-12T11:59:45.777Z,2.17
2023-04-12T12:04:50.927Z,2.03
2023-04-12T12:07:19.965Z,1.97
2023-04-12T12:09:48.215Z,2.37
2023-04-12T12:12:16.138Z,2.10
2023-04-12T12:14:47.224Z,2.20
2023-04-12T12:17:17.040Z,1.90
2023-04-12T12:19:46.360Z,2.30
2023-04-12T12:22:20.006Z,2.57
2023-04-12T12:24:51.005Z,2.27
2023-04-12T12:27:23.763Z,2.80
2023-04-12T12:29:53.438Z,2.20
2023-04-12T12:32:23.151Z,2.60
2023-04-12T12:34:52.222Z,2.67
2023-04-12T12:37:24.569Z,2.50
2023-04-12T12:40:13.568Z,2.60
2023-04-12T12:42:54.609Z,2.73
2023-04-12T12:45:23.977Z,2.43
2023-04-12T12:47:53.908Z,2.70
2023-04-12T12:50:25.060Z,2.27
2023-04-12T12:52:55.317Z,2.57
2023-04-12T12:55:24.292Z,2.57
2023-04-12T12:58:06.585Z,2.93
2023-04-12T13:00:36.375Z,3.00
2023-04-12T13:03:04.478Z,2.60
2023-04-12T13:05:32.527Z,2.83
2023-04-12T13:08:01.469Z,2.40
2023-04-12T13:10:29.092Z,3.20
2023-04-12T13:12:56.729Z,2.90
2023-04-12T13:15:24.939Z,2.37
2023-04-12T13:17:53.415Z,2.70
2023-04-12T13:20:21.647Z,2.60
2023-04-12T13:22:49.518Z,2.77
2023-04-12T13:25:19.722Z,2.57
2023-04-12T13:27:49.817Z,3.00
2023-04-12T13:30:17.786Z,2.80
2023-04-12T13:32:45.723Z,2.80
2023-04-12T13:35:14.335Z,3.10
2023-04-12T13:37:42.060Z,3.10
2023-04-12T13:40:10.776Z,2.90
2023-04-12T13:42:39.762Z,3.23
2023-04-12T13:45:08.650Z,2.83
2023-04-12T13:47:36.438Z,2.97
2023-04-12T13:50:04.308Z,2.97
2023-04-12T13:52:32.001Z,3.10
2023-04-12T13:54:59.681Z,3.67
2023-04-12T13:57:27.419Z,3.10
2023-04-12T13:59:56.363Z,3.60
2023-04-12T14:02:24.049Z,3.30
2023-04-12T14:04:52.970Z,3.30
2023-04-12T14:07:21.263Z,3.53
2023-04-12T14:09:49.375Z,3.27
2023-04-12T14:12:16.988Z,3.37
2023-04-12T14:14:44.618Z,3.07
2023-04-12T14:17:13.654Z,2.97
2023-04-12T14:19:41.327Z,3.50
2023-04-12T14:22:08.943Z,3.10
2023-04-12T14:24:36.858Z,3.10
2023-04-12T14:27:04.876Z,3.33
2023-04-12T14:29:32.864Z,3.33
2023-04-12T14:32:00.534Z,3.60
2023-04-12T14:34:31.043Z,3.20
2023-04-12T14:37:00.308Z,3.40
2023-04-12T14:39:28.155Z,2.93
2023-04-12T14:41:56.859Z,3.50
2023-04-12T14:44:26.139Z,3.47
2023-04-12T14:46:54.175Z,3.10
2023-04-12T14:49:21.877Z,3.33
2023-04-12T14:51:50.872Z,3.20
2023-04-12T14:54:18.476Z,3.77
2023-04-12T14:56:52.037Z,3.77
2023-04-12T14:59:21.634Z,3.63
2023-04-12T15:01:49.513Z,3.80
2023-04-12T15:04:17.329Z,3.90
2023-04-12T15:06:45.375Z,3.67
2023-04-12T15:09:15.705Z,3.43
2023-04-12T15:11:47.222Z,3.30
2023-04-12T15:14:18.101Z,3.37
2023-04-12T15:16:49.079Z,3.73
2023-04-12T15:19:21.673Z,3.10
2023-04-12T15:21:51.431Z,3.10
2023-04-12T15:24:20.853Z,3.60
2023-04-12T15:26:50.781Z,3.50
2023-04-12T15:29:19.738Z,3.57
2023-04-12T15:31:47.632Z,3.17
2023-04-12T15:34:15.383Z,3.57
2023-04-12T15:36:43.933Z,3.73
2023-04-12T15:39:12.497Z,3.77
2023-04-12T15:41:42.835Z,3.57
2023-04-12T15:44:13.003Z,3.43
2023-04-12T15:46:40.704Z,3.43
2023-04-12T15:49:09.075Z,3.47
2023-04-12T15:51:36.765Z,3.87
2023-04-12T15:54:06.515Z,3.50
2023-04-12T15:56:35.092Z,3.30
2023-04-12T15:59:04.095Z,4.13
2023-04-12T16:01:31.765Z,4.17
2023-04-12T16:03:59.627Z,3.60
2023-04-12T16:06:28.283Z,3.60
2023-04-12T16:08:57.338Z,3.53
2023-04-12T16:11:25.394Z,3.70
2023-04-12T16:13:54.097Z,4.07
2023-04-12T16:16:24.641Z,3.87
2023-04-12T16:18:53.207Z,3.77
2023-04-12T16:21:22.203Z,4.00
2023-04-12T16:23:51.395Z,3.83
2023-04-12T16:26:21.729Z,3.53
2023-04-12T16:28:50.329Z,4.07
2023-04-12T16:31:19.747Z,3.80
2023-04-12T16:33:51.001Z,3.97
2023-04-12T16:36:19.426Z,3.83
2023-04-12T16:38:47.295Z,3.70
2023-04-12T16:41:17.115Z,4.10
2023-04-12T16:43:45.544Z,3.50
2023-04-12T16:46:14.960Z,3.70
2023-04-12T16:48:42.929Z,3.77
2023-04-12T16:51:11.879Z,4.17
2023-04-12T16:53:39.519Z,3.23
2023-04-12T16:56:07.635Z,3.90
2023-04-12T16:58:35.347Z,3.90
2023-04-12T17:01:03.184Z,4.30
2023-04-12T17:03:32.850Z,3.90
2023-04-12T17:06:00.599Z,3.40
2023-04-12T17:08:29.668Z,3.50
2023-04-12T17:10:57.349Z,3.70
2023-04-12T17:13:24.932Z,3.80
2023-04-12T17:15:52.599Z,4.07
2023-04-12T17:18:20.383Z,3.60
2023-04-12T17:20:48.288Z,3.73
2023-04-12T17:23:16.837Z,3.70
2023-04-12T17:25:46.419Z,3.80
2023-04-12T17:28:14.350Z,3.83
2023-04-12T17:30:42.292Z,3.70
2023-04-12T17:33:09.879Z,4.00
2023-04-12T17:35:37.544Z,3.80
2023-04-12T17:38:05.167Z,3.33
2023-04-12T17:40:32.828Z,3.53
2023-04-12T17:43:01.841Z,3.80
2023-04-12T17:45:29.819Z,3.77
2023-04-12T17:47:57.539Z,3.80
2023-04-12T17:50:25.516Z,3.20
2023-04-12T17:52:55.082Z,4.00
2023-04-12T17:55:23.638Z,3.70
2023-04-12T17:57:51.509Z,3.73
2023-04-12T18:00:23.318Z,3.70
2023-04-12T18:02:51.440Z,3.57
2023-04-12T18:05:19.316Z,3.80
2023-04-12T18:07:47.021Z,3.60
2023-04-12T18:10:18.905Z,3.90
2023-04-12T18:12:48.140Z,3.70
2023-04-12T18:15:15.853Z,3.73
2023-04-12T18:17:44.936Z,3.80
2023-04-12T18:20:13.959Z,3.47
2023-04-12T18:22:42.228Z,3.63
2023-04-12T18:25:11.665Z,3.93
2023-04-12T18:27:39.359Z,3.40
2023-04-12T18:30:08.439Z,3.80
2023-04-12T18:32:36.118Z,3.53
2023-04-12T18:35:05.625Z,3.80
2023-04-12T18:37:33.332Z,3.70
2023-04-12T18:40:00.995Z,3.30
2023-04-12T18:42:28.666Z,3.53
2023-04-12T18:44:58.212Z,3.60
2023-04-12T18:47:26.892Z,3.40
2023-04-12T18:49:54.580Z,3.30
2023-04-12T18:52:23.582Z,3.37
2023-04-12T18:54:51.316Z,3.27
2023-04-12T18:57:19.269Z,3.97
2023-04-12T18:59:48.832Z,3.23
2023-04-12T19:02:18.088Z,3.60
2023-04-12T19:04:45.898Z,3.50
2023-04-12T19:07:14.205Z,3.43
2023-04-12T19:09:43.158Z,3.43
2023-04-12T19:12:11.229Z,3.50
2023-04-12T19:14:38.822Z,3.07
2023-04-12T19:17:06.453Z,3.37
2023-04-12T19:19:34.031Z,3.23
2023-04-12T19:22:01.625Z,3.70
2023-04-12T19:24:29.389Z,3.40
2023-04-12T19:26:58.366Z,3.30
2023-04-12T19:29:26.059Z,3.30
2023-04-12T19:31:54.339Z,3.27
2023-04-12T19:34:21.986Z,3.23
2023-04-12T19:36:49.654Z,3.23
2023-04-12T19:39:18.473Z,3.07
2023-04-12T19:41:48.470Z,3.23
2023-04-12T19:44:17.494Z,3.10
2023-04-12T19:46:45.208Z,3.30
2023-04-12T19:49:13.334Z,3.20
2023-04-12T19:51:41.093Z,3.20
2023-04-12T19:54:09.964Z,3.37
2023-04-12T19:56:37.641Z,2.77
2023-04-12T19:59:06.467Z,3.43
2023-04-12T20:01:47.713Z,3.30
2023-04-12T20:04:16.135Z,3.00
2023-04-12T20:06:44.748Z,3.20
2023-04-12T20:09:13.937Z,3.00
2023-04-12T20:11:42.183Z,3.17
2023-04-12T20:14:09.840Z,3.20
2023-04-12T20:16:42.613Z,3.03
2023-04-12T20:19:11.065Z,2.93
2023-04-12T20:21:39.088Z,3.20
2023-04-12T20:24:08.697Z,3.27
2023-04-12T20:26:37.393Z,3.03
2023-04-12T20:29:05.373Z,3.00
2023-04-12T20:31:33.452Z,2.97
2023-04-12T20:34:04.107Z,3.20
2023-04-12T20:36:31.758Z,2.73
2023-04-12T20:38:59.512Z,2.77
2023-04-12T20:41:28.035Z,3.00
2023-04-12T20:43:55.939Z,3.20
2023-04-12T20:46:25.972Z,2.97
2023-04-12T20:48:56.261Z,2.80
2023-04-12T20:51:25.669Z,3.17
2023-04-12T20:53:53.271Z,3.03
2023-04-12T20:56:20.849Z,3.07
2023-04-12T20:58:49.816Z,3.03
2023-04-12T21:01:18.615Z,2.93
2023-04-12T21:03:46.652Z,3.07
2023-04-12T21:06:14.522Z,3.00
2023-04-12T21:08:44.439Z,2.90
2023-04-12T21:11:12.033Z,2.70
2023-04-12T21:13:40.699Z,2.70
2023-04-12T21:16:09.720Z,3.20
2023-04-12T21:18:37.380Z,2.90
2023-04-12T21:21:06.040Z,3.00
2023-04-12T21:23:34.169Z,3.10
2023-04-12T21:26:04.074Z,3.00
2023-04-12T21:28:31.777Z,2.90
2023-04-12T21:30:59.382Z,3.37
2023-04-12T21:33:26.989Z,2.70
2023-04-12T21:35:55.605Z,2.20
2023-04-12T21:38:23.971Z,2.60
2023-04-12T21:40:51.958Z,2.73
2023-04-12T21:43:20.958Z,2.63
2023-04-12T21:45:48.581Z,2.93
2023-04-12T21:48:16.403Z,2.87
2023-04-12T21:50:44.034Z,2.67
2023-04-12T21:53:11.640Z,2.43
2023-04-12T21:55:39.364Z,2.90
2023-04-12T21:58:07.457Z,2.63
2023-04-12T22:00:36.929Z,2.93
2023-04-12T22:03:05.237Z,2.60
2023-04-12T22:05:33.361Z,2.93
2023-04-12T22:08:00.972Z,2.80
2023-04-12T22:10:29.232Z,2.87
2023-04-12T22:12:56.844Z,2.73
2023-04-12T22:15:24.609Z,2.60
2023-04-12T22:17:53.814Z,2.60
2023-04-12T22:20:21.687Z,2.60
2023-04-12T22:22:49.476Z,2.30
2023-04-12T22:25:18.346Z,2.63
2023-04-12T22:27:46.425Z,2.67
2023-04-12T22:30:14.770Z,2.80
2023-04-12T22:32:42.475Z,2.93
2023-04-12T22:35:12.088Z,2.80
2023-04-12T22:37:41.157Z,2.47
2023-04-12T22:40:12.340Z,2.43
2023-04-12T22:42:45.913Z,2.43
2023-04-12T22:45:14.085Z,2.70
2023-04-12T22:47:42.961Z,2.70
2023-04-12T22:50:13.256Z,2.70
2023-04-12T22:52:41.840Z,2.90
2023-04-12T22:55:12.551Z,2.83
2023-04-12T22:57:40.178Z,2.50
2023-04-12T23:00:14.957Z,2.20
2023-04-12T23:02:44.966Z,2.30
2023-04-12T23:05:14.079Z,2.63
2023-04-12T23:07:43.400Z,2.30
2023-04-12T23:10:12.162Z,2.23
2023-04-12T23:12:39.912Z,2.47
2023-04-12T23:15:08.988Z,2.20
2023-04-12T23:17:37.314Z,2.23
2023-04-12T23:20:09.842Z,2.47
2023-04-12T23:22:56.668Z,2.23
2023-04-12T23:25:38.858Z,2.50
2023-04-12T23:28:12.516Z,2.43
2023-04-12T23:30:42.463Z,2.23
2023-04-12T23:33:12.224Z,2.37
2023-04-12T23:35:41.196Z,2.17
2023-04-12T23:38:15.363Z,2.03
2023-04-12T23:40:43.505Z,2.20
2023-04-12T23:43:11.159Z,2.33
2023-04-12T23:45:39.377Z,2.60
2023-04-12T23:48:07.645Z,2.30
2023-04-12T23:50:35.363Z,2.30
2023-04-12T23:53:03.638Z,2.20
2023-04-12T23:55:32.746Z,2.07
2023-04-12T23:58:00.787Z,2.37
